createdAt,value
2018-08-22T00:02:03.215Z,15.10
2018-08-22T00:04:33.242Z,15.10
2018-08-22T00:07:03.241Z,15.10
2018-08-22T00:09:33.311Z,15.00
2018-08-22T00:12:03.362Z,15.00
2018-08-22T00:14:33.462Z,14.90
2018-08-22T00:17:03.495Z,14.90
2018-08-22T00:19:33.705Z,14.90
2018-08-22T00:22:03.701Z,14.90
2018-08-22T00:24:33.736Z,14.80
2018-08-22T00:27:03.766Z,14.80
2018-08-22T00:29:33.941Z,14.80
2018-08-22T00:32:03.981Z,14.80
2018-08-22T00:34:33.940Z,14.80
2018-08-22T00:37:03.964Z,14.70
2018-08-22T00:39:34.001Z,14.70
2018-08-22T00:42:04.850Z,14.60
2018-08-22T00:44:34.939Z,14.60
2018-08-22T00:47:04.977Z,14.60
2018-08-22T00:49:35.945Z,14.60
2018-08-22T00:52:06.010Z,14.50
2018-08-22T00:54:36.064Z,14.50
2018-08-22T00:57:06.108Z,14.40
2018-08-22T00:59:36.448Z,14.40
2018-08-22T01:02:06.646Z,14.40
2018-08-22T01:04:36.675Z,14.40
2018-08-22T01:07:06.994Z,14.40
2018-08-22T01:09:36.965Z,14.40
2018-08-22T01:12:07.109Z,14.40
2018-08-22T01:14:37.230Z,14.40
2018-08-22T01:17:07.215Z,14.30
2018-08-22T01:19:37.370Z,14.30
2018-08-22T01:22:07.587Z,14.30
2018-08-22T01:24:37.709Z,14.30
2018-08-22T01:27:07.703Z,14.20
2018-08-22T01:29:37.711Z,14.20
2018-08-22T01:32:07.701Z,14.10
2018-08-22T01:34:37.842Z,14.10
2018-08-22T01:37:07.983Z,14.10
2018-08-22T01:39:38.119Z,14.10
2018-08-22T01:42:08.076Z,14.10
2018-08-22T01:44:38.108Z,14.10
2018-08-22T01:47:08.097Z,14.00
2018-08-22T01:49:38.277Z,14.00
2018-08-22T01:52:08.365Z,14.00
2018-08-22T01:54:38.385Z,13.90
2018-08-22T01:57:08.377Z,13.90
2018-08-22T01:59:38.456Z,13.90
2018-08-22T02:02:08.498Z,14.00
2018-08-22T02:04:38.536Z,13.90
2018-08-22T02:07:08.657Z,13.90
2018-08-22T02:09:38.701Z,13.90
2018-08-22T02:12:08.733Z,13.80
2018-08-22T02:14:38.746Z,13.80
2018-08-22T02:17:08.795Z,13.70
2018-08-22T02:19:38.831Z,13.70
2018-08-22T02:22:08.924Z,13.70
2018-08-22T02:24:38.909Z,13.70
2018-08-22T02:27:09.104Z,13.70
2018-08-22T02:29:39.251Z,13.70
2018-08-22T02:32:09.240Z,13.60
2018-08-22T02:34:39.423Z,13.60
2018-08-22T02:37:09.550Z,13.60
2018-08-22T02:39:39.811Z,13.60
2018-08-22T02:42:09.874Z,13.60
2018-08-22T02:44:39.945Z,13.60
2018-08-22T02:47:10.004Z,13.50
2018-08-22T02:49:39.976Z,13.50
2018-08-22T02:52:10.030Z,13.50
2018-08-22T02:54:40.069Z,13.50
2018-08-22T02:57:10.053Z,13.40
2018-08-22T02:59:40.227Z,13.40
2018-08-22T03:02:10.314Z,13.40
2018-08-22T03:04:40.303Z,13.30
2018-08-22T03:07:10.295Z,13.30
2018-08-22T03:09:40.315Z,13.30
2018-08-22T03:12:10.348Z,13.30
2018-08-22T03:14:40.443Z,13.20
2018-08-22T03:17:10.506Z,13.20
2018-08-22T03:19:40.590Z,13.20
2018-08-22T03:22:10.667Z,13.20
2018-08-22T03:24:40.774Z,13.20
2018-08-22T03:27:10.823Z,13.20
2018-08-22T03:29:40.840Z,13.20
2018-08-22T03:32:10.829Z,13.20
2018-08-22T03:34:40.939Z,13.10
2018-08-22T03:37:11.003Z,13.10
2018-08-22T03:39:41.455Z,13.10
2018-08-22T03:42:11.824Z,13.10
2018-08-22T03:44:41.914Z,13.10
2018-08-22T03:47:12.126Z,13.10
2018-08-22T03:49:42.189Z,13.10
2018-08-22T03:52:12.262Z,13.00
2018-08-22T03:54:42.384Z,13.00
2018-08-22T03:57:12.443Z,12.90
2018-08-22T03:59:42.598Z,12.90
2018-08-22T04:02:12.745Z,12.90
2018-08-22T04:04:42.861Z,12.90
2018-08-22T04:07:12.845Z,12.90
2018-08-22T04:09:42.922Z,12.90
2018-08-22T04:12:13.106Z,12.90
2018-08-22T04:14:43.183Z,12.90
2018-08-22T04:17:13.271Z,12.90
2018-08-22T04:19:43.290Z,13.00
2018-08-22T04:22:13.586Z,13.00
2018-08-22T04:24:43.650Z,13.00
2018-08-22T04:27:13.686Z,13.00
2018-08-22T04:29:43.732Z,13.00
2018-08-22T04:32:13.841Z,13.10
2018-08-22T04:34:43.863Z,13.10
2018-08-22T04:37:14.088Z,13.10
2018-08-22T04:39:44.137Z,13.20
2018-08-22T04:42:14.243Z,13.20
2018-08-22T04:44:45.156Z,13.20
2018-08-22T04:47:15.248Z,13.30
2018-08-22T04:49:45.408Z,13.30
2018-08-22T04:52:15.857Z,13.30
2018-08-22T04:54:45.943Z,13.30
2018-08-22T04:57:15.952Z,13.30
2018-08-22T04:59:46.051Z,13.40
2018-08-22T05:02:16.177Z,13.40
2018-08-22T05:04:46.252Z,13.50
2018-08-22T05:07:16.281Z,13.60
2018-08-22T05:09:46.382Z,13.60
2018-08-22T05:12:16.445Z,13.70
2018-08-22T05:14:46.517Z,13.70
2018-08-22T05:17:16.558Z,13.80
2018-08-22T05:19:46.707Z,13.80
2018-08-22T05:22:16.799Z,13.80
2018-08-22T05:24:53.535Z,13.80
2018-08-22T05:27:23.551Z,13.90
2018-08-22T05:29:53.670Z,14.00
2018-08-22T05:32:23.683Z,14.10
2018-08-22T05:34:53.965Z,14.20
2018-08-22T05:37:24.236Z,14.20
2018-08-22T05:39:54.434Z,14.30
2018-08-22T05:42:24.464Z,14.40
2018-08-22T05:44:54.510Z,14.50
2018-08-22T05:47:24.733Z,14.60
2018-08-22T05:49:54.773Z,14.70
2018-08-22T05:52:24.792Z,14.80
2018-08-22T05:54:54.772Z,14.80
2018-08-22T05:57:24.771Z,14.90
2018-08-22T05:59:54.919Z,15.00
2018-08-22T06:02:25.005Z,15.10
2018-08-22T06:04:55.111Z,15.10
2018-08-22T06:07:25.123Z,15.20
2018-08-22T06:09:55.185Z,15.30
2018-08-22T06:12:25.326Z,15.40
2018-08-22T06:14:55.386Z,15.50
2018-08-22T06:17:25.438Z,15.60
2018-08-22T06:19:55.486Z,15.70
2018-08-22T06:22:25.561Z,15.80
2018-08-22T06:24:55.610Z,15.90
2018-08-22T06:27:25.811Z,16.00
2018-08-22T06:29:55.770Z,16.10
2018-08-22T06:32:25.959Z,16.20
2018-08-22T06:34:56.191Z,16.30
2018-08-22T06:37:26.285Z,16.40
2018-08-22T06:39:56.302Z,16.50
2018-08-22T06:42:26.376Z,16.60
2018-08-22T06:44:56.445Z,16.70
2018-08-22T06:47:26.528Z,16.80
2018-08-22T06:49:56.569Z,16.90
2018-08-22T06:52:26.648Z,17.00
2018-08-22T06:54:56.642Z,17.10
2018-08-22T06:57:26.686Z,17.20
2018-08-22T06:59:56.678Z,17.30
2018-08-22T07:02:26.762Z,17.40
2018-08-22T07:04:56.721Z,17.50
2018-08-22T07:07:26.727Z,17.60
2018-08-22T07:09:56.777Z,17.70
2018-08-22T07:12:26.798Z,17.80
2018-08-22T07:14:56.762Z,17.90
2018-08-22T07:17:26.819Z,18.10
2018-08-22T07:19:56.859Z,18.20
2018-08-22T07:22:26.854Z,18.40
2018-08-22T07:24:57.015Z,18.50
2018-08-22T07:27:27.071Z,18.70
2018-08-22T07:29:57.051Z,18.80
2018-08-22T07:32:27.037Z,18.90
2018-08-22T07:34:57.081Z,19.00
2018-08-22T07:37:27.110Z,19.10
2018-08-22T07:39:57.122Z,19.30
2018-08-22T07:42:27.124Z,19.40
2018-08-22T07:44:57.095Z,19.50
2018-08-22T07:47:27.107Z,19.60
2018-08-22T07:49:57.268Z,19.80
2018-08-22T07:52:27.371Z,19.90
2018-08-22T07:54:57.385Z,20.00
2018-08-22T07:57:27.442Z,20.10
2018-08-22T07:59:57.559Z,20.20
2018-08-22T08:02:27.618Z,20.40
2018-08-22T08:04:57.618Z,20.50
2018-08-22T08:07:27.670Z,20.60
2018-08-22T08:09:57.706Z,20.80
2018-08-22T08:12:32.002Z,20.90
2018-08-22T08:15:04.123Z,21.00
2018-08-22T08:17:34.218Z,21.10
2018-08-22T08:20:04.491Z,21.30
2018-08-22T08:22:34.526Z,21.40
2018-08-22T08:25:04.594Z,21.50
2018-08-22T08:27:34.621Z,21.60
2018-08-22T08:30:06.313Z,21.80
2018-08-22T08:32:36.425Z,21.90
2018-08-22T08:35:06.505Z,22.00
2018-08-22T08:37:37.531Z,22.10
2018-08-22T08:40:07.608Z,22.20
2018-08-22T08:42:37.709Z,22.30
2018-08-22T08:45:09.680Z,22.40
2018-08-22T08:47:39.885Z,22.50
2018-08-22T08:50:09.864Z,22.60
2018-08-22T08:52:39.900Z,22.70
2018-08-22T08:55:09.912Z,22.80
2018-08-22T08:57:39.961Z,22.80
2018-08-22T09:00:10.081Z,22.90
2018-08-22T09:02:40.073Z,23.00
2018-08-22T09:05:10.137Z,23.10
2018-08-22T09:07:40.229Z,23.20
2018-08-22T09:10:10.205Z,23.30
2018-08-22T09:12:40.189Z,23.40
2018-08-22T09:15:10.177Z,23.30
2018-08-22T09:17:40.214Z,23.30
2018-08-22T09:20:10.269Z,23.40
2018-08-22T09:22:40.295Z,23.60
2018-08-22T09:25:10.404Z,23.70
2018-08-22T09:27:40.392Z,23.90
2018-08-22T09:30:10.373Z,24.00
2018-08-22T09:32:40.481Z,24.00
2018-08-22T09:35:10.479Z,24.00
2018-08-22T09:37:40.496Z,24.00
2018-08-22T09:40:11.497Z,24.00
2018-08-22T09:42:41.530Z,24.20
2018-08-22T09:45:11.543Z,24.30
2018-08-22T09:47:41.541Z,24.40
2018-08-22T09:50:11.739Z,24.40
2018-08-22T09:52:41.812Z,24.40
2018-08-22T09:55:11.870Z,24.40
2018-08-22T09:57:42.077Z,24.60
2018-08-22T10:00:17.473Z,24.80
2018-08-22T10:02:47.376Z,24.90
2018-08-22T10:05:17.429Z,25.00
2018-08-22T10:07:47.507Z,25.10
2018-08-22T10:10:17.472Z,25.20
2018-08-22T10:12:47.499Z,25.30
2018-08-22T10:15:17.511Z,25.20
2018-08-22T10:17:47.534Z,25.20
2018-08-22T10:20:17.534Z,25.20
2018-08-22T10:22:47.700Z,25.30
2018-08-22T10:25:17.709Z,25.30
2018-08-22T10:27:47.697Z,25.40
2018-08-22T10:30:17.747Z,25.40
2018-08-22T10:32:47.836Z,25.50
2018-08-22T10:35:18.226Z,25.70
2018-08-22T10:37:48.330Z,25.60
2018-08-22T10:40:18.457Z,25.80
2018-08-22T10:42:48.599Z,25.80
2018-08-22T10:45:18.636Z,26.00
2018-08-22T10:47:48.683Z,26.00
2018-08-22T10:50:18.718Z,26.10
2018-08-22T10:52:48.801Z,26.20
2018-08-22T10:55:18.988Z,26.30
2018-08-22T10:57:48.956Z,26.30
2018-08-22T11:00:18.995Z,26.40
2018-08-22T11:02:49.061Z,26.40
2018-08-22T11:05:19.098Z,26.40
2018-08-22T11:07:49.308Z,26.40
2018-08-22T11:10:19.348Z,26.10
2018-08-22T11:12:49.417Z,26.20
2018-08-22T11:15:22.600Z,26.40
2018-08-22T11:17:52.774Z,26.50
2018-08-22T11:20:22.872Z,26.40
2018-08-22T11:23:09.955Z,26.60
2018-08-22T11:25:56.940Z,26.60
2018-08-22T11:28:44.687Z,26.70
2018-08-22T11:31:32.106Z,26.60
2018-08-22T11:34:19.193Z,26.60
2018-08-22T11:37:00.288Z,26.80
2018-08-22T11:39:30.353Z,27.00
2018-08-22T11:42:00.404Z,26.90
2018-08-22T11:44:30.678Z,26.60
2018-08-22T11:47:01.081Z,26.60
2018-08-22T11:49:31.968Z,26.60
2018-08-22T11:52:02.117Z,26.70
2018-08-22T11:54:32.540Z,26.80
2018-08-22T11:57:02.814Z,26.80
2018-08-22T11:59:32.917Z,26.60
2018-08-22T12:02:02.989Z,26.70
2018-08-22T12:04:32.979Z,26.90
2018-08-22T12:07:02.975Z,26.90
2018-08-22T12:09:33.112Z,26.90
2018-08-22T12:12:03.132Z,27.10
2018-08-22T12:14:33.137Z,27.20
2018-08-22T12:17:03.155Z,27.30
2018-08-22T12:19:33.160Z,27.40
2018-08-22T12:22:03.393Z,27.30
2018-08-22T12:24:33.360Z,27.30
2018-08-22T12:27:03.423Z,27.40
2018-08-22T12:29:33.430Z,27.50
2018-08-22T12:32:03.440Z,27.60
2018-08-22T12:34:33.490Z,27.60
2018-08-22T12:37:03.581Z,27.70
2018-08-22T12:39:33.556Z,27.80
2018-08-22T12:42:03.612Z,28.00
2018-08-22T12:44:33.840Z,28.00
2018-08-22T12:47:03.811Z,28.00
2018-08-22T12:49:34.093Z,28.00
2018-08-22T12:52:04.199Z,27.90
2018-08-22T12:54:34.249Z,28.00
2018-08-22T12:57:04.280Z,27.70
2018-08-22T12:59:34.535Z,27.70
2018-08-22T13:02:04.533Z,27.90
2018-08-22T13:04:34.595Z,28.00
2018-08-22T13:07:04.794Z,28.20
2018-08-22T13:09:35.727Z,28.30
2018-08-22T13:12:05.902Z,28.30
2018-08-22T13:14:35.934Z,28.40
2018-08-22T13:17:06.149Z,28.30
2018-08-22T13:19:36.201Z,28.20
2018-08-22T13:22:06.251Z,28.00
2018-08-22T13:27:34.115Z,28.20
2018-08-22T13:30:04.176Z,28.20
2018-08-22T13:32:34.281Z,28.20
2018-08-22T13:35:04.322Z,28.40
2018-08-22T13:37:34.341Z,28.50
2018-08-22T13:40:04.293Z,28.50
2018-08-22T13:42:34.371Z,28.60
2018-08-22T13:45:04.373Z,28.60
2018-08-22T13:47:34.402Z,28.70
2018-08-22T13:50:04.405Z,28.80
2018-08-22T13:52:34.671Z,28.90
2018-08-22T13:55:04.696Z,28.90
2018-08-22T13:57:34.636Z,29.00
2018-08-22T14:00:04.867Z,29.00
2018-08-22T14:02:34.857Z,29.00
2018-08-22T14:05:05.144Z,28.80
2018-08-22T14:07:35.241Z,28.70
2018-08-22T14:10:05.374Z,28.60
2018-08-22T14:12:35.326Z,28.50
2018-08-22T14:15:05.308Z,28.70
2018-08-22T14:17:35.333Z,28.90
2018-08-22T14:20:05.355Z,29.00
2018-08-22T14:22:35.358Z,29.00
2018-08-22T14:25:05.426Z,28.80
2018-08-22T14:27:35.474Z,28.80
2018-08-22T14:30:06.591Z,28.80
2018-08-22T14:32:36.532Z,28.80
2018-08-22T14:35:06.582Z,28.80
2018-08-22T14:37:37.482Z,28.90
2018-08-22T14:40:07.657Z,29.00
2018-08-22T14:42:37.797Z,29.20
2018-08-22T14:45:08.063Z,29.20
2018-08-22T14:47:38.116Z,29.20
2018-08-22T14:50:08.712Z,29.10
2018-08-22T14:52:38.837Z,29.00
2018-08-22T14:55:08.790Z,28.90
2018-08-22T14:57:38.903Z,28.80
2018-08-22T15:00:09.059Z,28.70
2018-08-22T15:02:39.286Z,28.70
2018-08-22T15:05:09.286Z,28.80
2018-08-22T15:07:39.476Z,29.00
2018-08-22T15:10:09.520Z,29.10
2018-08-22T15:12:39.579Z,29.10
2018-08-22T15:15:09.525Z,29.10
2018-08-22T15:17:39.484Z,29.00
2018-08-22T15:20:09.449Z,29.00
2018-08-22T15:22:39.521Z,29.00
2018-08-22T15:25:09.755Z,29.00
2018-08-22T15:27:39.834Z,29.10
2018-08-22T15:30:09.971Z,28.90
2018-08-22T15:32:40.012Z,28.90
2018-08-22T15:35:10.010Z,28.90
2018-08-22T15:37:40.044Z,28.90
2018-08-22T15:40:10.008Z,28.90
2018-08-22T15:42:40.018Z,28.70
2018-08-22T15:45:09.984Z,28.70
2018-08-22T15:47:40.030Z,28.70
2018-08-22T15:50:09.993Z,28.70
2018-08-22T15:52:40.030Z,28.70
2018-08-22T15:55:16.675Z,28.70
2018-08-22T15:58:00.453Z,28.70
2018-08-22T16:00:50.168Z,28.70
2018-08-22T16:03:21.449Z,28.50
2018-08-22T16:05:52.326Z,28.60
2018-08-22T16:08:23.698Z,28.50
2018-08-22T16:10:53.785Z,28.50
2018-08-22T16:13:30.107Z,28.50
2018-08-22T16:16:02.276Z,28.50
2018-08-22T16:18:34.687Z,28.40
2018-08-22T16:21:06.894Z,28.30
2018-08-22T16:23:36.969Z,28.40
2018-08-22T16:26:07.017Z,28.30
2018-08-22T16:28:54.758Z,28.20
2018-08-22T16:31:29.477Z,28.20
2018-08-22T16:33:59.509Z,28.10
2018-08-22T16:36:30.370Z,28.10
2018-08-22T16:39:01.200Z,28.00
2018-08-22T16:41:31.305Z,28.00
2018-08-22T16:44:01.256Z,28.00
2018-08-22T16:46:37.550Z,28.00
2018-08-22T16:49:07.593Z,28.00
2018-08-22T16:51:37.681Z,28.00
2018-08-22T16:54:08.698Z,28.00
2018-08-22T16:56:38.941Z,28.00
2018-08-22T16:59:13.128Z,27.90
2018-08-22T17:01:48.824Z,27.70
2018-08-22T17:04:18.925Z,27.70
2018-08-22T17:06:49.150Z,27.60
2018-08-22T17:09:19.241Z,27.50
2018-08-22T17:11:49.250Z,27.30
2018-08-22T17:14:19.341Z,27.20
2018-08-22T17:16:49.465Z,27.10
2018-08-22T17:19:19.498Z,27.00
2018-08-22T17:21:49.550Z,26.90
2018-08-22T17:24:19.705Z,26.90
2018-08-22T17:26:49.726Z,26.80
2018-08-22T17:29:19.789Z,26.80
2018-08-22T17:32:05.209Z,26.70
2018-08-22T17:34:35.412Z,26.60
2018-08-22T17:37:08.642Z,26.40
2018-08-22T17:39:38.688Z,26.20
2018-08-22T17:42:08.817Z,26.00
2018-08-22T17:44:38.859Z,25.90
2018-08-22T17:47:08.938Z,25.80
2018-08-22T17:49:39.007Z,25.60
2018-08-22T17:52:11.292Z,25.50
2018-08-22T17:54:41.337Z,25.40
2018-08-22T17:57:19.898Z,25.20
2018-08-22T17:59:50.019Z,25.10
2018-08-22T18:02:20.074Z,25.00
2018-08-22T18:05:01.544Z,24.90
2018-08-22T18:07:31.629Z,24.70
2018-08-22T18:10:04.037Z,24.60
2018-08-22T18:12:34.079Z,24.50
2018-08-22T18:15:04.653Z,24.40
2018-08-22T18:17:34.825Z,24.30
2018-08-22T18:20:05.033Z,24.20
2018-08-22T18:22:36.573Z,24.00
2018-08-22T18:25:07.179Z,23.90
2018-08-22T18:27:37.306Z,23.70
2018-08-22T18:30:11.241Z,23.70
2018-08-22T18:32:41.278Z,23.60
2018-08-22T18:35:12.129Z,23.50
2018-08-22T18:37:42.634Z,23.40
2018-08-22T18:40:21.463Z,23.40
2018-08-22T18:42:54.308Z,23.30
2018-08-22T18:45:25.014Z,23.20
2018-08-22T18:47:55.240Z,23.10
2018-08-22T18:50:26.220Z,23.10
2018-08-22T18:52:58.619Z,23.00
2018-08-22T18:55:29.876Z,22.90
2018-08-22T18:58:02.403Z,22.80
2018-08-22T19:00:36.177Z,22.70
2018-08-22T19:03:06.126Z,22.60
2018-08-22T19:05:37.793Z,22.60
2018-08-22T19:08:14.616Z,22.50
2018-08-22T19:10:45.885Z,22.40
2018-08-22T19:13:17.189Z,22.30
2018-08-22T19:15:48.809Z,22.20
2018-08-22T19:18:19.343Z,22.20
2018-08-22T19:20:49.856Z,22.10
2018-08-22T19:23:20.941Z,22.10
2018-08-22T19:25:52.052Z,22.00
2018-08-22T19:28:22.174Z,21.90
2018-08-22T19:30:52.276Z,21.80
2018-08-22T19:33:23.556Z,21.80
2018-08-22T19:35:53.755Z,21.70
2018-08-22T19:38:25.948Z,21.70
2018-08-22T19:40:56.745Z,21.70
2018-08-22T19:43:26.841Z,21.60
2018-08-22T19:45:56.877Z,21.50
2018-08-22T19:48:27.021Z,21.50
2018-08-22T19:50:58.692Z,21.40
2018-08-22T19:53:28.942Z,21.40
2018-08-22T19:55:59.577Z,21.30
2018-08-22T19:58:34.475Z,21.30
2018-08-22T20:01:05.006Z,21.20
2018-08-22T20:03:35.696Z,21.10
2018-08-22T20:06:05.887Z,21.10
2018-08-22T20:08:37.349Z,21.00
2018-08-22T20:11:07.905Z,21.00
2018-08-22T20:13:51.619Z,21.00
2018-08-22T20:16:22.753Z,21.00
2018-08-22T20:18:54.537Z,21.00
2018-08-22T20:21:42.734Z,20.90
2018-08-22T20:24:13.420Z,20.80
2018-08-22T20:26:51.354Z,20.80
2018-08-22T20:29:21.423Z,20.70
2018-08-22T20:31:51.437Z,20.70
2018-08-22T20:34:21.589Z,20.70
2018-08-22T20:36:51.634Z,20.70
2018-08-22T20:39:21.648Z,20.60
2018-08-22T20:41:55.525Z,20.60
2018-08-22T20:44:25.591Z,20.60
2018-08-22T20:46:58.323Z,20.60
2018-08-22T20:49:28.610Z,20.50
2018-08-22T20:51:58.630Z,20.50
2018-08-22T20:54:28.842Z,20.50
2018-08-22T20:57:01.127Z,20.50
2018-08-22T20:59:31.169Z,20.40
2018-08-22T21:02:04.086Z,20.40
2018-08-22T21:04:34.864Z,20.40
2018-08-22T21:07:05.471Z,20.30
2018-08-22T21:09:35.526Z,20.20
2018-08-22T21:12:05.763Z,20.10
2018-08-22T21:14:35.920Z,20.10
2018-08-22T21:17:06.071Z,20.00
2018-08-22T21:19:36.190Z,20.00
2018-08-22T21:22:23.125Z,20.00
2018-08-22T21:24:54.246Z,20.00
2018-08-22T21:27:24.524Z,19.90
2018-08-22T21:29:54.568Z,19.90
2018-08-22T21:32:24.663Z,19.90
2018-08-22T21:34:54.951Z,19.90
2018-08-22T21:37:29.145Z,19.80
2018-08-22T21:39:59.907Z,19.80
2018-08-22T21:42:32.222Z,19.80
2018-08-22T21:45:02.728Z,19.70
2018-08-22T21:47:32.826Z,19.70
2018-08-22T21:50:02.878Z,19.70
2018-08-22T21:53:07.483Z,19.70
2018-08-22T21:55:53.584Z,19.60
2018-08-22T21:58:24.471Z,19.60
2018-08-22T22:00:54.731Z,19.50
2018-08-22T22:03:30.153Z,19.50
2018-08-22T22:06:03.815Z,19.50
2018-08-22T22:08:33.814Z,19.40
2018-08-22T22:11:05.598Z,19.40
2018-08-22T22:13:35.747Z,19.30
2018-08-22T22:16:06.246Z,19.30
2018-08-22T22:18:36.334Z,19.20
2018-08-22T22:21:13.943Z,19.20
2018-08-22T22:23:45.653Z,19.20
2018-08-22T22:26:16.817Z,19.10
2018-08-22T22:28:46.785Z,19.10
2018-08-22T22:31:17.890Z,19.10
2018-08-22T22:33:53.915Z,19.00
2018-08-22T22:36:23.958Z,19.00
2018-08-22T22:38:54.109Z,19.00
2018-08-22T22:41:27.517Z,18.90
2018-08-22T22:43:57.542Z,18.90
2018-08-22T22:46:27.728Z,18.90
2018-08-22T22:48:57.799Z,18.80
2018-08-22T22:51:27.895Z,18.80
2018-08-22T22:53:58.046Z,18.80
2018-08-22T22:56:28.035Z,18.80
2018-08-22T22:58:58.060Z,18.70
2018-08-22T23:01:28.124Z,18.70
2018-08-22T23:03:58.310Z,18.60
2018-08-22T23:06:31.460Z,18.50
2018-08-22T23:09:01.505Z,18.40
2018-08-22T23:11:31.518Z,18.40
2018-08-22T23:14:01.607Z,18.30
2018-08-22T23:16:37.607Z,18.30
2018-08-22T23:19:07.680Z,18.20
2018-08-22T23:21:37.771Z,18.20
2018-08-22T23:24:19.371Z,18.20
2018-08-22T23:26:50.909Z,18.20
2018-08-22T23:29:21.646Z,18.20
2018-08-22T23:31:51.786Z,18.10
2018-08-22T23:34:22.010Z,18.10
2018-08-22T23:36:52.678Z,18.10
2018-08-22T23:39:23.297Z,18.10
2018-08-22T23:41:53.522Z,18.10
2018-08-22T23:44:23.663Z,18.10
2018-08-22T23:46:54.239Z,18.10
2018-08-22T23:49:24.539Z,18.00
2018-08-22T23:51:54.913Z,18.00
2018-08-22T23:54:25.385Z,18.00
2018-08-22T23:56:59.568Z,18.00
2018-08-22T23:59:29.771Z,18.00
